Aérodrome :
LOGIN :

S'inscrire | Disclaimer

   EN    FR    IT 

 










Légende :    VFR   VFR Marginal   IFR   IFR Intensif   IFR Très Intensif
Visi : 
Plafond : 
>= 8 km
>= 3000ft
5 à 8 km
1000 à 3000 ft
1500m à 5 km
500 à 1000 ft
800 à 1500m
200 à 500 ft
< 800m
< 200 ft
Symboles :   Orages  Brouillard  Fortes neiges  Fortes précipitations  Vent > 20 kt
SIGMETs :   Divers  Orages  Givrage  Turbulence  Onde Orograph.  Cendres Volcan.







- Altitude de l'aérodrome : 9 ft
- Code IATA : MIR


DTMB - Habib Bourguliba Int. Monastir

DERNIER METAR :
  • 281000Z 36006KT 330V030 CAVOK 32/22 Q1009

METARs EXPIRÉS :
  • 280930Z 01003KT 300V060 CAVOK 32/21 Q1009
  • 280900Z 00000KT CAVOK 33/21 Q1009
  • 280830Z VRB01KT CAVOK 31/21 Q1009
  • 280800Z VRB02KT CAVOK 29/23 Q1009
  • 280730Z 34003KT 300V020 CAVOK 29/23 Q1009

TAF TAF DTMB
Valide du 28 à 06h jusqu'au 29 à 06h UTC


280540Z 2806/2906 VRB03KT 6000 NSC
BECMG 2807/2809 03010KT CAVOK
BECMG 2812/2814 12015KT 9999 FEW030
BECMG 2816/2818 03015G25KT
BECMG 2820/2822 02006KT
Pas de NOTAMs connus pour ce terrain.



MET'MAP, la Météo Aéronautique d'un coup d'oeil ! - Copyright ORBIFLY Décembre 2007 - Disclaimer

ORBIFLY MET'MAP TEAM :

Programmation & Développement : Alexandra Zaïnal
Conception & Développement : Baudouin d'Aumeries
Co-Programmation & Développement : Marc-Olivier Méhu
Soutien technique & logistique : Manuel Goepfert

Contact : metmap@orbifly.com




SOURCES & CREDITS :

   NOAA